Cherry Point Marine Corps Ai, North Carolina
Current Conditions -  °F | °C
As of 8:54 AM on Thursday 30 Oct 2014 (Local Time) from KNKT Reporting Station
Overcast Overcast  
Wind Chill: 58°   Ceiling: 3600
Heat Index: 58°   Visibility: 10mi
Dew Point: 53°   Wind: 12mph
Humidity: 84%   Direction: 10°N
Pressure: 30.01"   Gusts: NA
Location:  34.8973°N, 76.9091°W
Report Text: KNKT 301254Z 01010KT 10SM OVC036 14/12 A3001 RMK AO2 SLP159 T01440117 $
Loading
Personal Weather Stations






























Interactive Weather Map
Tropical Storm Tracking
New forecast layout! Learn more

10-Day Weather Forecast

Advertisements
Track Severe Weather on mobile